FNE1002 SEGU-SPJC
Flight info
| Callsign | FNE1002 |
|---|---|
| Flight time | 1h 35m |
| Altitude | 41000 |
| Route | MIMIT2 EVRED UL780 TRU UV1 ATATU |
| Aircraft | B738/M-SDE2E3FGHIRWXY/LB1 |
Departure
| Time | 2026-05-03 23:17 |
|---|---|
| Airport | José Joaquín de Olmedo International Airport (SEGU) |
Arrival
| Time | 2026-05-04 00:52 |
|---|---|
| Airport | Jorge Chávez International Airport (SPJC) |
| Time | Latitude | Longitude | Altitude | Speed | Heading |
|---|---|---|---|---|---|
| 2026-05-03 23:02 | -2.15372 | -79.88321 | 21 ft | 0 kts | 301° |
| 2026-05-03 23:08 | -2.15373 | -79.88320 | 21 ft | 2 kts | 300° |
| 2026-05-03 23:09 | -2.15380 | -79.88304 | 24 ft | 4 kts | 225° |
| 2026-05-03 23:09 | -2.15368 | -79.88303 | 22 ft | 4 kts | 179° |
| 2026-05-03 23:09 | -2.15348 | -79.88300 | 22 ft | 1 kts | 208° |
| 2026-05-03 23:09 | -2.15344 | -79.88298 | 22 ft | 0 kts | 208° |
| 2026-05-03 23:13 | -2.15351 | -79.88302 | 21 ft | 6 kts | 208° |
| 2026-05-03 23:14 | -2.15446 | -79.88354 | 22 ft | 20 kts | 208° |
| 2026-05-03 23:14 | -2.15578 | -79.88402 | 21 ft | 20 kts | 188° |
| 2026-05-03 23:14 | -2.15711 | -79.88452 | 23 ft | 23 kts | 208° |
| 2026-05-03 23:14 | -2.15859 | -79.88536 | 23 ft | 27 kts | 210° |
| 2026-05-03 23:15 | -2.16040 | -79.88642 | 22 ft | 32 kts | 211° |
| 2026-05-03 23:15 | -2.16258 | -79.88771 | 22 ft | 37 kts | 210° |
| 2026-05-03 23:15 | -2.16488 | -79.88903 | 22 ft | 36 kts | 209° |
| 2026-05-03 23:15 | -2.16634 | -79.88984 | 21 ft | 21 kts | 209° |
| 2026-05-03 23:16 | -2.16719 | -79.88975 | 22 ft | 10 kts | 111° |
| 2026-05-03 23:16 | -2.16695 | -79.88916 | 21 ft | 10 kts | 36° |
| 2026-05-03 23:16 | -2.16450 | -79.88776 | 23 ft | 94 kts | 30° |
| 2026-05-03 23:16 | -2.15600 | -79.88272 | 248 ft | 177 kts | 31° |
| 2026-05-03 23:17 | -2.14428 | -79.87606 | 1245 ft | 205 kts | 31° |
| 2026-05-03 23:17 | -2.13173 | -79.86867 | 2403 ft | 210 kts | 32° |
| 2026-05-03 23:17 | -2.12034 | -79.85924 | 3331 ft | 228 kts | 59° |
| 2026-05-03 23:17 | -2.11786 | -79.84403 | 4360 ft | 230 kts | 102° |
| 2026-05-03 23:18 | -2.12589 | -79.83033 | 5499 ft | 235 kts | 137° |
| 2026-05-03 23:18 | -2.14012 | -79.82230 | 6681 ft | 237 kts | 165° |
| 2026-05-03 23:18 | -2.15658 | -79.82110 | 7772 ft | 240 kts | 181° |
| 2026-05-03 23:18 | -2.17336 | -79.82189 | 8966 ft | 241 kts | 182° |
| 2026-05-03 23:19 | -2.19020 | -79.82269 | 10072 ft | 244 kts | 181° |
| 2026-05-03 23:19 | -2.20737 | -79.82341 | 11048 ft | 250 kts | 180° |
| 2026-05-03 23:19 | -2.22489 | -79.82403 | 12040 ft | 255 kts | 177° |
| 2026-05-03 23:19 | -2.24308 | -79.82331 | 12610 ft | 280 kts | 173° |
| 2026-05-03 23:20 | -2.26373 | -79.82167 | 12867 ft | 315 kts | 172° |
| 2026-05-03 23:20 | -2.28652 | -79.81971 | 13290 ft | 339 kts | 172° |
| 2026-05-03 23:20 | -2.31032 | -79.81773 | 14108 ft | 347 kts | 172° |
| 2026-05-03 23:20 | -2.33459 | -79.81579 | 15014 ft | 351 kts | 172° |
| 2026-05-03 23:21 | -2.35090 | -79.81453 | 15603 ft | 353 kts | 172° |
| 2026-05-03 23:21 | -2.37554 | -79.81264 | 16451 ft | 359 kts | 172° |
| 2026-05-03 23:21 | -2.40899 | -79.81010 | 17543 ft | 367 kts | 172° |
| 2026-05-03 23:21 | -2.43467 | -79.80817 | 18317 ft | 372 kts | 172° |
| 2026-05-03 23:22 | -2.48682 | -79.80427 | 19708 ft | 381 kts | 173° |
| 2026-05-03 23:22 | -2.51334 | -79.80229 | 20408 ft | 385 kts | 174° |
| 2026-05-03 23:22 | -2.53139 | -79.80094 | 20852 ft | 388 kts | 174° |
| 2026-05-03 23:23 | -2.55823 | -79.79894 | 21530 ft | 393 kts | 174° |
| 2026-05-03 23:23 | -2.59493 | -79.79620 | 22399 ft | 399 kts | 174° |
| 2026-05-03 23:23 | -2.61349 | -79.79481 | 22814 ft | 402 kts | 175° |
| 2026-05-03 23:23 | -2.64150 | -79.79272 | 23371 ft | 408 kts | 174° |
| 2026-05-03 23:24 | -2.67019 | -79.79057 | 23833 ft | 414 kts | 174° |
| 2026-05-03 23:24 | -2.69893 | -79.78842 | 24492 ft | 413 kts | 174° |
| 2026-05-03 23:24 | -2.72775 | -79.78626 | 25079 ft | 415 kts | 175° |
| 2026-05-03 23:24 | -2.75623 | -79.78412 | 25586 ft | 418 kts | 174° |
| 2026-05-03 23:25 | -2.78545 | -79.78195 | 26103 ft | 422 kts | 174° |
| 2026-05-03 23:25 | -2.81477 | -79.77954 | 26629 ft | 424 kts | 172° |
| 2026-05-03 23:25 | -2.84420 | -79.77616 | 27143 ft | 426 kts | 171° |
| 2026-05-03 23:25 | -2.87386 | -79.77223 | 27700 ft | 429 kts | 170° |
| 2026-05-03 23:26 | -2.90358 | -79.76814 | 28198 ft | 432 kts | 170° |
| 2026-05-03 23:26 | -2.93346 | -79.76405 | 28708 ft | 435 kts | 170° |
| 2026-05-03 23:26 | -2.96354 | -79.76001 | 29203 ft | 438 kts | 170° |
| 2026-05-03 23:26 | -2.99345 | -79.75607 | 29670 ft | 441 kts | 170° |
| 2026-05-03 23:27 | -3.02411 | -79.75208 | 30092 ft | 445 kts | 170° |
| 2026-05-03 23:27 | -3.05479 | -79.74813 | 30424 ft | 449 kts | 170° |
| 2026-05-03 23:27 | -3.08608 | -79.74413 | 30822 ft | 451 kts | 170° |
| 2026-05-03 23:27 | -3.11695 | -79.74019 | 31238 ft | 453 kts | 170° |
| 2026-05-03 23:28 | -3.14845 | -79.73617 | 31624 ft | 455 kts | 170° |
| 2026-05-03 23:28 | -3.18014 | -79.73212 | 31973 ft | 457 kts | 170° |
| 2026-05-03 23:28 | -3.21140 | -79.72812 | 32320 ft | 460 kts | 170° |
| 2026-05-03 23:28 | -3.24319 | -79.72406 | 32650 ft | 462 kts | 170° |
| 2026-05-03 23:29 | -3.27503 | -79.71999 | 33166 ft | 461 kts | 170° |
| 2026-05-03 23:29 | -3.30697 | -79.71591 | 33663 ft | 460 kts | 170° |
| 2026-05-03 23:29 | -3.33855 | -79.71188 | 34171 ft | 458 kts | 170° |
| 2026-05-03 23:29 | -3.37006 | -79.70785 | 34614 ft | 456 kts | 170° |
| 2026-05-03 23:30 | -3.40147 | -79.70383 | 35017 ft | 456 kts | 169° |
| 2026-05-03 23:30 | -3.43280 | -79.69982 | 35443 ft | 456 kts | 169° |
| 2026-05-03 23:30 | -3.46418 | -79.69580 | 35901 ft | 454 kts | 169° |
| 2026-05-03 23:30 | -3.49561 | -79.69178 | 36313 ft | 453 kts | 169° |
| 2026-05-03 23:31 | -3.52681 | -79.68779 | 36836 ft | 450 kts | 169° |
| 2026-05-03 23:31 | -3.55779 | -79.68383 | 37297 ft | 448 kts | 169° |
| 2026-05-03 23:31 | -3.58886 | -79.67984 | 37623 ft | 450 kts | 169° |
| 2026-05-03 23:31 | -3.61951 | -79.67591 | 37999 ft | 450 kts | 169° |
| 2026-05-03 23:32 | -3.65053 | -79.67194 | 38477 ft | 448 kts | 169° |
| 2026-05-03 23:32 | -3.68183 | -79.66794 | 38938 ft | 445 kts | 169° |
| 2026-05-03 23:32 | -3.71215 | -79.66406 | 39343 ft | 442 kts | 169° |
| 2026-05-03 23:32 | -3.74231 | -79.66020 | 39686 ft | 441 kts | 170° |
| 2026-05-03 23:33 | -3.77284 | -79.65628 | 39963 ft | 442 kts | 170° |
| 2026-05-03 23:33 | -3.80352 | -79.65234 | 40205 ft | 443 kts | 170° |
| 2026-05-03 23:33 | -3.83403 | -79.64843 | 40558 ft | 441 kts | 170° |
| 2026-05-03 23:33 | -3.86425 | -79.64456 | 40969 ft | 438 kts | 170° |
| 2026-05-03 23:34 | -3.92541 | -79.63672 | 41049 ft | 445 kts | 170° |
| 2026-05-03 23:34 | -3.98658 | -79.62889 | 41039 ft | 440 kts | 171° |
| 2026-05-03 23:35 | -4.04685 | -79.62118 | 41042 ft | 435 kts | 170° |
| 2026-05-03 23:35 | -4.10714 | -79.61344 | 41054 ft | 435 kts | 171° |
| 2026-05-03 23:36 | -4.16700 | -79.60576 | 41048 ft | 435 kts | 170° |
| 2026-05-03 23:36 | -4.22703 | -79.59806 | 41043 ft | 436 kts | 170° |
| 2026-05-03 23:37 | -4.28726 | -79.59033 | 41029 ft | 437 kts | 170° |
| 2026-05-03 23:37 | -4.34762 | -79.58259 | 41029 ft | 437 kts | 171° |
| 2026-05-03 23:38 | -4.40799 | -79.57484 | 41028 ft | 437 kts | 170° |
| 2026-05-03 23:38 | -4.46813 | -79.56712 | 41075 ft | 438 kts | 170° |
| 2026-05-03 23:39 | -4.52882 | -79.55936 | 41066 ft | 438 kts | 171° |
| 2026-05-03 23:39 | -4.58914 | -79.55182 | 41068 ft | 439 kts | 171° |
| 2026-05-03 23:40 | -4.64988 | -79.54426 | 41095 ft | 440 kts | 171° |
| 2026-05-03 23:40 | -4.71089 | -79.53666 | 41080 ft | 442 kts | 171° |
| 2026-05-03 23:41 | -4.77197 | -79.52903 | 41072 ft | 443 kts | 171° |
| 2026-05-03 23:41 | -4.83276 | -79.52143 | 41087 ft | 442 kts | 171° |
| 2026-05-03 23:42 | -4.89388 | -79.51379 | 41081 ft | 443 kts | 171° |
| 2026-05-03 23:42 | -4.95491 | -79.50615 | 41079 ft | 443 kts | 169° |
| 2026-05-03 23:43 | -5.01606 | -79.49849 | 41099 ft | 443 kts | 170° |
| 2026-05-03 23:43 | -5.07753 | -79.49081 | 41096 ft | 444 kts | 171° |
| 2026-05-03 23:44 | -5.13881 | -79.48313 | 41080 ft | 445 kts | 171° |
| 2026-05-03 23:44 | -5.19987 | -79.47550 | 41092 ft | 446 kts | 171° |
| 2026-05-03 23:45 | -5.26133 | -79.46782 | 41073 ft | 446 kts | 171° |
| 2026-05-03 23:45 | -5.32315 | -79.46010 | 41061 ft | 447 kts | 171° |
| 2026-05-03 23:46 | -5.38447 | -79.45242 | 41064 ft | 447 kts | 169° |
| 2026-05-03 23:46 | -5.44615 | -79.44465 | 41051 ft | 446 kts | 171° |
| 2026-05-03 23:47 | -5.50793 | -79.43692 | 41023 ft | 446 kts | 169° |
| 2026-05-03 23:47 | -5.56959 | -79.42922 | 41006 ft | 446 kts | 169° |
| 2026-05-03 23:48 | -5.63097 | -79.42151 | 41031 ft | 446 kts | 171° |
| 2026-05-03 23:48 | -5.69233 | -79.41381 | 41033 ft | 444 kts | 171° |
| 2026-05-03 23:49 | -5.75389 | -79.40610 | 41043 ft | 445 kts | 170° |
| 2026-05-03 23:49 | -5.81526 | -79.39840 | 41035 ft | 446 kts | 170° |
| 2026-05-03 23:50 | -5.86658 | -79.39196 | 41011 ft | 446 kts | 171° |
| 2026-05-03 23:50 | -5.93885 | -79.38290 | 41015 ft | 446 kts | 170° |
| 2026-05-03 23:51 | -6.00047 | -79.37516 | 41018 ft | 446 kts | 170° |
| 2026-05-03 23:51 | -6.06166 | -79.36748 | 41019 ft | 447 kts | 169° |
| 2026-05-03 23:52 | -6.12358 | -79.35971 | 41021 ft | 447 kts | 171° |
| 2026-05-03 23:52 | -6.18499 | -79.35198 | 41014 ft | 446 kts | 171° |
| 2026-05-03 23:53 | -6.24662 | -79.34423 | 41005 ft | 446 kts | 171° |
| 2026-05-03 23:53 | -6.30788 | -79.33655 | 40994 ft | 445 kts | 170° |
| 2026-05-03 23:54 | -6.36942 | -79.32882 | 40982 ft | 445 kts | 171° |
| 2026-05-03 23:54 | -6.43083 | -79.32110 | 40974 ft | 445 kts | 171° |
| 2026-05-03 23:55 | -6.49245 | -79.31336 | 40977 ft | 445 kts | 171° |
| 2026-05-03 23:55 | -6.55399 | -79.30562 | 40978 ft | 444 kts | 171° |
| 2026-05-03 23:56 | -6.61492 | -79.29795 | 40957 ft | 444 kts | 171° |
| 2026-05-03 23:56 | -6.67600 | -79.29026 | 40963 ft | 443 kts | 171° |
| 2026-05-03 23:57 | -6.73746 | -79.28253 | 40947 ft | 443 kts | 171° |
| 2026-05-03 23:57 | -6.79830 | -79.27487 | 40988 ft | 443 kts | 171° |
| 2026-05-03 23:58 | -6.85983 | -79.26712 | 40985 ft | 442 kts | 171° |
| 2026-05-03 23:58 | -6.92055 | -79.25947 | 40976 ft | 442 kts | 171° |
| 2026-05-03 23:59 | -6.98148 | -79.25180 | 40979 ft | 442 kts | 171° |
| 2026-05-03 23:59 | -7.04259 | -79.24409 | 40974 ft | 442 kts | 171° |
| 2026-05-04 00:00 | -7.10335 | -79.23643 | 40978 ft | 441 kts | 171° |
| 2026-05-04 00:00 | -7.16427 | -79.22875 | 40983 ft | 441 kts | 171° |
| 2026-05-04 00:01 | -7.22532 | -79.22105 | 40963 ft | 442 kts | 172° |
| 2026-05-04 00:01 | -7.28673 | -79.21330 | 40963 ft | 442 kts | 171° |
| 2026-05-04 00:02 | -7.34775 | -79.20560 | 40957 ft | 442 kts | 171° |
| 2026-05-04 00:02 | -7.40837 | -79.19795 | 40946 ft | 442 kts | 171° |
| 2026-05-04 00:03 | -7.46950 | -79.19023 | 40961 ft | 442 kts | 172° |
| 2026-05-04 00:03 | -7.53051 | -79.18253 | 40951 ft | 442 kts | 172° |
| 2026-05-04 00:04 | -7.59143 | -79.17483 | 40947 ft | 442 kts | 172° |
| 2026-05-04 00:04 | -7.65231 | -79.16714 | 40948 ft | 442 kts | 172° |
| 2026-05-04 00:05 | -7.71349 | -79.15940 | 40953 ft | 442 kts | 172° |
| 2026-05-04 00:05 | -7.77435 | -79.15171 | 40934 ft | 442 kts | 172° |
| 2026-05-04 00:06 | -7.83551 | -79.14397 | 40931 ft | 441 kts | 172° |
| 2026-05-04 00:06 | -7.89606 | -79.13631 | 40925 ft | 441 kts | 172° |
| 2026-05-04 00:07 | -7.95705 | -79.12859 | 40942 ft | 441 kts | 172° |
| 2026-05-04 00:07 | -8.01830 | -79.12083 | 40941 ft | 441 kts | 172° |
| 2026-05-04 00:08 | -8.07845 | -79.11169 | 40934 ft | 440 kts | 164° |
| 2026-05-04 00:08 | -8.13482 | -79.08754 | 40947 ft | 437 kts | 150° |
| 2026-05-04 00:09 | -8.18763 | -79.05764 | 40938 ft | 438 kts | 149° |
| 2026-05-04 00:09 | -8.24084 | -79.02746 | 40938 ft | 438 kts | 150° |
| 2026-05-04 00:10 | -8.29399 | -78.99769 | 40944 ft | 439 kts | 150° |
| 2026-05-04 00:10 | -8.34746 | -78.96795 | 40953 ft | 439 kts | 150° |
| 2026-05-04 00:11 | -8.39196 | -78.94323 | 40952 ft | 440 kts | 150° |
| 2026-05-04 00:11 | -8.45440 | -78.90854 | 40957 ft | 440 kts | 150° |
| 2026-05-04 00:12 | -8.50806 | -78.87870 | 40946 ft | 440 kts | 150° |
| 2026-05-04 00:12 | -8.55317 | -78.85360 | 40945 ft | 441 kts | 150° |
| 2026-05-04 00:13 | -8.60649 | -78.82393 | 40965 ft | 441 kts | 150° |
| 2026-05-04 00:13 | -8.66033 | -78.79396 | 40956 ft | 441 kts | 150° |
| 2026-05-04 00:14 | -8.71386 | -78.76415 | 40956 ft | 440 kts | 150° |
| 2026-05-04 00:14 | -8.76790 | -78.73406 | 40957 ft | 440 kts | 150° |
| 2026-05-04 00:15 | -8.81736 | -78.70649 | 40951 ft | 440 kts | 150° |
| 2026-05-04 00:15 | -8.84827 | -78.68926 | 40956 ft | 439 kts | 150° |
| 2026-05-04 00:16 | -8.90150 | -78.65958 | 40959 ft | 439 kts | 150° |
| 2026-05-04 00:16 | -8.95516 | -78.62966 | 40958 ft | 439 kts | 150° |
| 2026-05-04 00:17 | -9.00857 | -78.59987 | 40962 ft | 439 kts | 150° |
| 2026-05-04 00:17 | -9.06214 | -78.56996 | 40957 ft | 439 kts | 150° |
| 2026-05-04 00:18 | -9.11599 | -78.53989 | 40963 ft | 439 kts | 150° |
| 2026-05-04 00:18 | -9.16946 | -78.51077 | 40959 ft | 439 kts | 153° |
| 2026-05-04 00:19 | -9.22449 | -78.48404 | 40958 ft | 439 kts | 154° |
| 2026-05-04 00:19 | -9.28016 | -78.45756 | 40960 ft | 439 kts | 154° |
| 2026-05-04 00:20 | -9.33522 | -78.43107 | 40958 ft | 440 kts | 153° |
| 2026-05-04 00:20 | -9.39017 | -78.40441 | 40959 ft | 440 kts | 153° |
| 2026-05-04 00:21 | -9.44557 | -78.37746 | 40964 ft | 440 kts | 153° |
| 2026-05-04 00:21 | -9.50058 | -78.35069 | 40963 ft | 440 kts | 153° |
| 2026-05-04 00:22 | -9.55580 | -78.32382 | 40961 ft | 441 kts | 153° |
| 2026-05-04 00:22 | -9.61110 | -78.29689 | 40963 ft | 441 kts | 153° |
| 2026-05-04 00:23 | -9.66640 | -78.26996 | 40953 ft | 441 kts | 153° |
| 2026-05-04 00:23 | -9.72205 | -78.24285 | 40972 ft | 441 kts | 153° |
| 2026-05-04 00:24 | -9.77705 | -78.21604 | 40972 ft | 442 kts | 153° |
| 2026-05-04 00:24 | -9.83260 | -78.18896 | 40946 ft | 443 kts | 153° |
| 2026-05-04 00:25 | -9.86059 | -78.17531 | 40468 ft | 447 kts | 153° |
| 2026-05-04 00:25 | -9.88844 | -78.16172 | 39949 ft | 445 kts | 153° |
| 2026-05-04 00:25 | -9.91673 | -78.14792 | 39376 ft | 444 kts | 153° |
| 2026-05-04 00:25 | -9.94455 | -78.13435 | 38804 ft | 444 kts | 153° |
| 2026-05-04 00:26 | -9.97215 | -78.12088 | 38114 ft | 445 kts | 153° |
| 2026-05-04 00:26 | -10.00009 | -78.10724 | 37466 ft | 445 kts | 153° |
| 2026-05-04 00:26 | -10.02782 | -78.09369 | 36849 ft | 445 kts | 153° |
| 2026-05-04 00:26 | -10.05591 | -78.07997 | 36222 ft | 445 kts | 153° |
| 2026-05-04 00:27 | -10.08356 | -78.06646 | 35541 ft | 447 kts | 153° |
| 2026-05-04 00:27 | -10.11157 | -78.05278 | 35019 ft | 445 kts | 153° |
| 2026-05-04 00:27 | -10.13952 | -78.03912 | 34482 ft | 444 kts | 153° |
| 2026-05-04 00:27 | -10.16709 | -78.02564 | 33978 ft | 443 kts | 152° |
| 2026-05-04 00:28 | -10.19510 | -78.01195 | 33410 ft | 441 kts | 153° |
| 2026-05-04 00:28 | -10.22287 | -77.99837 | 32766 ft | 441 kts | 153° |
| 2026-05-04 00:28 | -10.25008 | -77.98506 | 32268 ft | 439 kts | 153° |
| 2026-05-04 00:28 | -10.27748 | -77.97166 | 31767 ft | 436 kts | 153° |
| 2026-05-04 00:29 | -10.30451 | -77.95843 | 31297 ft | 433 kts | 153° |
| 2026-05-04 00:29 | -10.33170 | -77.94512 | 30810 ft | 431 kts | 153° |
| 2026-05-04 00:29 | -10.35856 | -77.93196 | 30310 ft | 429 kts | 153° |
| 2026-05-04 00:29 | -10.38547 | -77.91878 | 29790 ft | 427 kts | 153° |
| 2026-05-04 00:30 | -10.41219 | -77.90570 | 29242 ft | 423 kts | 153° |
| 2026-05-04 00:30 | -10.43863 | -77.89274 | 28742 ft | 419 kts | 153° |
| 2026-05-04 00:30 | -10.46468 | -77.87997 | 28241 ft | 415 kts | 153° |
| 2026-05-04 00:30 | -10.49053 | -77.86730 | 27749 ft | 411 kts | 153° |
| 2026-05-04 00:31 | -10.51591 | -77.85485 | 27277 ft | 407 kts | 153° |
| 2026-05-04 00:31 | -10.54175 | -77.84218 | 26779 ft | 404 kts | 153° |
| 2026-05-04 00:31 | -10.56646 | -77.83006 | 26326 ft | 401 kts | 153° |
| 2026-05-04 00:31 | -10.59175 | -77.81768 | 25876 ft | 397 kts | 153° |
| 2026-05-04 00:32 | -10.61646 | -77.80560 | 25436 ft | 394 kts | 153° |
| 2026-05-04 00:32 | -10.64128 | -77.79347 | 24951 ft | 392 kts | 153° |
| 2026-05-04 00:32 | -10.66567 | -77.78154 | 24478 ft | 390 kts | 153° |
| 2026-05-04 00:32 | -10.69000 | -77.76963 | 23999 ft | 389 kts | 153° |
| 2026-05-04 00:33 | -10.71467 | -77.75756 | 23526 ft | 387 kts | 152° |
| 2026-05-04 00:33 | -10.76236 | -77.73420 | 22498 ft | 380 kts | 152° |
| 2026-05-04 00:33 | -10.78607 | -77.72259 | 22033 ft | 376 kts | 152° |
| 2026-05-04 00:34 | -10.80969 | -77.71102 | 21572 ft | 373 kts | 152° |
| 2026-05-04 00:34 | -10.83282 | -77.69968 | 21114 ft | 369 kts | 152° |
| 2026-05-04 00:34 | -10.85592 | -77.68836 | 20677 ft | 366 kts | 152° |
| 2026-05-04 00:34 | -10.87884 | -77.67712 | 20218 ft | 363 kts | 152° |
| 2026-05-04 00:35 | -10.90149 | -77.66601 | 19784 ft | 360 kts | 152° |
| 2026-05-04 00:35 | -10.92412 | -77.65491 | 19328 ft | 358 kts | 152° |
| 2026-05-04 00:35 | -10.94618 | -77.64409 | 18889 ft | 356 kts | 152° |
| 2026-05-04 00:35 | -10.96856 | -77.63311 | 18445 ft | 354 kts | 152° |
| 2026-05-04 00:36 | -10.99058 | -77.62230 | 17957 ft | 352 kts | 152° |
| 2026-05-04 00:36 | -11.01266 | -77.61146 | 17495 ft | 349 kts | 152° |
| 2026-05-04 00:36 | -11.03449 | -77.60075 | 17044 ft | 345 kts | 152° |
| 2026-05-04 00:36 | -11.05564 | -77.59036 | 16626 ft | 342 kts | 152° |
| 2026-05-04 00:37 | -11.07689 | -77.57991 | 16191 ft | 339 kts | 153° |
| 2026-05-04 00:37 | -11.09805 | -77.56952 | 15766 ft | 336 kts | 153° |
| 2026-05-04 00:37 | -11.11892 | -77.55927 | 15354 ft | 333 kts | 153° |
| 2026-05-04 00:37 | -11.13978 | -77.54903 | 14933 ft | 330 kts | 153° |
| 2026-05-04 00:38 | -11.16037 | -77.53890 | 14534 ft | 328 kts | 153° |
| 2026-05-04 00:38 | -11.18104 | -77.52875 | 14119 ft | 325 kts | 153° |
| 2026-05-04 00:38 | -11.20137 | -77.51875 | 13705 ft | 324 kts | 153° |
| 2026-05-04 00:38 | -11.22162 | -77.50879 | 13237 ft | 322 kts | 153° |
| 2026-05-04 00:39 | -11.24141 | -77.49908 | 13046 ft | 312 kts | 154° |
| 2026-05-04 00:39 | -11.26076 | -77.48972 | 12787 ft | 305 kts | 154° |
| 2026-05-04 00:39 | -11.28005 | -77.48064 | 12445 ft | 302 kts | 155° |
| 2026-05-04 00:39 | -11.29898 | -77.47177 | 12088 ft | 301 kts | 155° |
| 2026-05-04 00:40 | -11.31804 | -77.46284 | 11710 ft | 300 kts | 155° |
| 2026-05-04 00:40 | -11.33680 | -77.45404 | 11328 ft | 299 kts | 155° |
| 2026-05-04 00:40 | -11.35605 | -77.44499 | 10930 ft | 300 kts | 155° |
| 2026-05-04 00:40 | -11.37473 | -77.43621 | 10539 ft | 300 kts | 155° |
| 2026-05-04 00:41 | -11.39401 | -77.42713 | 10200 ft | 299 kts | 155° |
| 2026-05-04 00:41 | -11.41237 | -77.41849 | 10025 ft | 292 kts | 155° |
| 2026-05-04 00:41 | -11.43068 | -77.40986 | 9720 ft | 290 kts | 155° |
| 2026-05-04 00:41 | -11.44904 | -77.40121 | 9384 ft | 288 kts | 155° |
| 2026-05-04 00:42 | -11.46706 | -77.39272 | 9046 ft | 286 kts | 155° |
| 2026-05-04 00:42 | -11.48506 | -77.38423 | 8707 ft | 285 kts | 155° |
| 2026-05-04 00:42 | -11.50319 | -77.37569 | 8363 ft | 284 kts | 155° |
| 2026-05-04 00:42 | -11.52088 | -77.36734 | 8034 ft | 284 kts | 155° |
| 2026-05-04 00:43 | -11.53902 | -77.35878 | 7695 ft | 283 kts | 155° |
| 2026-05-04 00:43 | -11.55685 | -77.35037 | 7357 ft | 282 kts | 155° |
| 2026-05-04 00:43 | -11.57438 | -77.34210 | 7014 ft | 282 kts | 155° |
| 2026-05-04 00:43 | -11.59215 | -77.33372 | 6673 ft | 281 kts | 155° |
| 2026-05-04 00:44 | -11.60986 | -77.32536 | 6437 ft | 276 kts | 155° |
| 2026-05-04 00:44 | -11.62697 | -77.31729 | 6240 ft | 270 kts | 155° |
| 2026-05-04 00:44 | -11.64422 | -77.30915 | 5920 ft | 268 kts | 155° |
| 2026-05-04 00:44 | -11.66092 | -77.30127 | 5633 ft | 266 kts | 155° |
| 2026-05-04 00:45 | -11.67773 | -77.29334 | 5341 ft | 265 kts | 155° |
| 2026-05-04 00:45 | -11.69433 | -77.28550 | 5050 ft | 263 kts | 155° |
| 2026-05-04 00:45 | -11.71097 | -77.27764 | 4764 ft | 261 kts | 155° |
| 2026-05-04 00:45 | -11.72739 | -77.26988 | 4469 ft | 259 kts | 155° |
| 2026-05-04 00:46 | -11.74327 | -77.26238 | 4279 ft | 253 kts | 155° |
| 2026-05-04 00:46 | -11.75915 | -77.25488 | 4159 ft | 244 kts | 155° |
| 2026-05-04 00:46 | -11.77418 | -77.24778 | 4050 ft | 237 kts | 155° |
| 2026-05-04 00:46 | -11.78882 | -77.24087 | 3941 ft | 229 kts | 155° |
| 2026-05-04 00:47 | -11.80308 | -77.23407 | 3803 ft | 223 kts | 153° |
| 2026-05-04 00:47 | -11.81643 | -77.22606 | 3596 ft | 222 kts | 147° |
| 2026-05-04 00:47 | -11.82940 | -77.21767 | 3392 ft | 220 kts | 147° |
| 2026-05-04 00:47 | -11.84227 | -77.20940 | 3189 ft | 218 kts | 148° |
| 2026-05-04 00:48 | -11.85518 | -77.20118 | 3048 ft | 213 kts | 148° |
| 2026-05-04 00:48 | -11.86749 | -77.19339 | 2979 ft | 205 kts | 148° |
| 2026-05-04 00:48 | -11.87951 | -77.18580 | 2801 ft | 202 kts | 149° |
| 2026-05-04 00:48 | -11.89174 | -77.17896 | 2539 ft | 200 kts | 153° |
| 2026-05-04 00:49 | -11.90401 | -77.17275 | 2286 ft | 198 kts | 154° |
| 2026-05-04 00:49 | -11.91634 | -77.16664 | 2038 ft | 196 kts | 154° |
| 2026-05-04 00:49 | -11.92840 | -77.16067 | 1792 ft | 186 kts | 155° |
| 2026-05-04 00:49 | -11.93981 | -77.15501 | 1549 ft | 176 kts | 155° |
| 2026-05-04 00:50 | -11.95038 | -77.14975 | 1335 ft | 165 kts | 155° |
| 2026-05-04 00:50 | -11.96046 | -77.14476 | 1105 ft | 155 kts | 155° |
| 2026-05-04 00:50 | -11.96976 | -77.14014 | 925 ft | 143 kts | 155° |
| 2026-05-04 00:50 | -11.97850 | -77.13580 | 724 ft | 132 kts | 155° |
| 2026-05-04 00:51 | -11.98614 | -77.13202 | 559 ft | 118 kts | 155° |
| 2026-05-04 00:51 | -11.99335 | -77.12844 | 410 ft | 115 kts | 155° |
| 2026-05-04 00:51 | -12.00044 | -77.12491 | 258 ft | 109 kts | 155° |
| 2026-05-04 00:51 | -12.00731 | -77.12150 | 122 ft | 110 kts | 155° |
| 2026-05-04 00:52 | -12.01409 | -77.11822 | 50 ft | 102 kts | 155° |
| 2026-05-04 00:52 | -12.01938 | -77.11562 | 54 ft | 67 kts | 154° |
| 2026-05-04 00:52 | -12.02250 | -77.11404 | 67 ft | 31 kts | 154° |
| 2026-05-04 00:52 | -12.02439 | -77.11309 | 74 ft | 29 kts | 154° |
| 2026-05-04 00:53 | -12.02608 | -77.11226 | 75 ft | 19 kts | 154° |
| 2026-05-04 00:53 | -12.02679 | -77.11188 | 82 ft | 11 kts | 154° |
| 2026-05-04 00:53 | -12.02747 | -77.11155 | 84 ft | 11 kts | 152° |
| 2026-05-04 00:53 | -12.02799 | -77.11102 | 84 ft | 11 kts | 125° |
| 2026-05-04 00:54 | -12.02848 | -77.11039 | 85 ft | 12 kts | 128° |
| 2026-05-04 00:54 | -12.02881 | -77.10991 | 84 ft | 12 kts | 125° |
| 2026-05-04 00:54 | -12.02926 | -77.10923 | 87 ft | 11 kts | 123° |
| 2026-05-04 00:54 | -12.02956 | -77.10852 | 86 ft | 11 kts | 85° |
| 2026-05-04 00:55 | -12.02898 | -77.10815 | 83 ft | 12 kts | 5° |
| 2026-05-04 00:55 | -12.02809 | -77.10819 | 81 ft | 13 kts | 5° |
| 2026-05-04 00:55 | -12.02760 | -77.10776 | 80 ft | 9 kts | 61° |
| 2026-05-04 00:55 | -12.02729 | -77.10712 | 82 ft | 11 kts | 64° |
| 2026-05-04 00:56 | -12.02875 | -77.10717 | 85 ft | 0 kts | 98° |